Time;durP1;ratioP1;P1;durP2;ratioP2;P2;SDS_P1;SDS_P2;PMS_P1;PMS_P2;Temp;Humidity;BMP_temperature;BMP_pressure;BME280_temperature;BME280_humidity;BME280_pressure;Samples;Min_cycle;Max_cycle;Signal;HPM_P1;HPM_P2
2022/02/14 00:00:01;;;;;;;5.90;2.20;;;;;;;;;;5053772;28;20451;-76
2022/02/14 00:02:27;;;;;;;4.28;2.00;;;;;;;;;;5053541;28;20029;-76
2022/02/14 00:04:53;;;;;;;6.10;2.28;;;;;;;;;;5053768;28;20032;-76
2022/02/14 00:07:19;;;;;;;7.05;2.28;;;;;;;;;;5053417;28;20469;-77
2022/02/14 00:09:46;;;;;;;5.53;2.08;;;;;;;;;;5053659;28;20028;-76
2022/02/14 00:12:12;;;;;;;4.00;1.63;;;;;;;;;;5052064;28;20496;-77
2022/02/14 00:14:38;;;;;;;4.85;1.95;;;;;;;;;;5053849;28;20032;-76
2022/02/14 00:17:04;;;;;;;5.05;1.50;;;;;;;;;;5052175;28;20069;-76
2022/02/14 00:19:30;;;;;;;4.75;1.75;;;;;;;;;;5053262;28;20140;-76
2022/02/14 00:21:57;;;;;;;5.25;2.20;;;;;;;;;;5053414;28;20107;-77
2022/02/14 00:24:23;;;;;;;5.15;2.35;;;;;;;;;;5053024;28;21215;-76
2022/02/14 00:26:53;;;;;;;5.63;1.60;;;;;;;;;;5052018;28;20029;-76
2022/02/14 00:29:19;;;;;;;4.63;1.80;;;;;;;;;;5053122;28;20021;-76
2022/02/14 00:31:45;;;;;;;2.97;1.60;;;;;;;;;;5053216;28;20469;-76
2022/02/14 00:34:11;;;;;;;6.45;2.25;;;;;;;;;;5052920;28;20024;-75
2022/02/14 00:36:37;;;;;;;7.18;2.25;;;;;;;;;;5052935;28;20033;-77
2022/02/14 00:39:04;;;;;;;6.10;2.28;;;;;;;;;;5053132;28;20021;-76
2022/02/14 00:41:30;;;;;;;4.30;1.83;;;;;;;;;;5052786;28;20366;-77
2022/02/14 00:43:56;;;;;;;4.50;1.85;;;;;;;;;;5053014;28;20025;-77
2022/02/14 00:46:22;;;;;;;3.75;1.60;;;;;;;;;;5052740;28;20029;-76
2022/02/14 00:48:48;;;;;;;5.57;1.70;;;;;;;;;;5052887;28;20021;-76
2022/02/14 00:51:14;;;;;;;5.18;1.63;;;;;;;;;;5051347;28;20457;-76
2022/02/14 00:53:40;;;;;;;5.45;1.83;;;;;;;;;;5051580;28;20021;-75
2022/02/14 00:56:06;;;;;;;4.85;1.90;;;;;;;;;;5052898;28;20112;-77
2022/02/14 00:58:32;;;;;;;4.72;1.70;;;;;;;;;;5052448;28;20025;-77
2022/02/14 01:00:58;;;;;;;6.93;1.65;;;;;;;;;;5052651;28;20036;-76
2022/02/14 01:03:24;;;;;;;5.88;1.60;;;;;;;;;;5052421;28;20401;-76
2022/02/14 01:05:50;;;;;;;4.88;1.73;;;;;;;;;;5052620;28;20025;-76
2022/02/14 01:08:16;;;;;;;5.97;1.80;;;;;;;;;;5050971;28;20473;-76
2022/02/14 01:10:42;;;;;;;6.95;1.85;;;;;;;;;;5052392;28;20116;-76
2022/02/14 01:13:08;;;;;;;4.85;1.98;;;;;;;;;;5052712;28;20021;-77
2022/02/14 01:15:34;;;;;;;4.30;2.03;;;;;;;;;;5052070;28;20465;-77
2022/02/14 01:18:00;;;;;;;2.50;1.55;;;;;;;;;;5052379;28;20033;-76
2022/02/14 01:20:26;;;;;;;4.65;1.90;;;;;;;;;;5052091;28;20063;-76
2022/02/14 01:22:52;;;;;;;3.85;1.75;;;;;;;;;;5052268;28;20056;-76
2022/02/14 01:25:18;;;;;;;4.00;1.60;;;;;;;;;;5050437;28;20473;-76
2022/02/14 01:27:44;;;;;;;6.38;2.00;;;;;;;;;;5052165;28;20072;-76
2022/02/14 01:30:11;;;;;;;4.43;1.52;;;;;;;;;;5051900;28;20067;-75
2022/02/14 01:32:37;;;;;;;5.10;1.60;;;;;;;;;;5052367;28;20028;-76
2022/02/14 01:35:04;;;;;;;5.70;1.88;;;;;;;;;;5051955;28;20063;-75
2022/02/14 01:37:32;;;;;;;5.22;1.70;;;;;;;;;;5050343;28;20041;-76
2022/02/14 01:39:58;;;;;;;3.38;1.20;;;;;;;;;;5050595;28;20401;-76
2022/02/14 01:42:24;;;;;;;3.30;1.80;;;;;;;;;;5051908;28;20032;-77
2022/02/14 01:44:52;;;;;;;5.85;1.98;;;;;;;;;;5051828;28;20104;-76
2022/02/14 01:47:22;;;;;;;2.80;1.30;;;;;;;;;;5050859;28;20029;-75
2022/02/14 01:49:49;;;;;;;6.20;1.98;;;;;;;;;;5051829;28;20052;-76
2022/02/14 01:52:15;;;;;;;4.82;1.83;;;;;;;;;;5051405;28;20112;-76
2022/02/14 01:54:43;;;;;;;4.88;1.70;;;;;;;;;;5051714;28;20393;-76
2022/02/14 01:57:11;;;;;;;3.85;1.77;;;;;;;;;;5051901;28;20048;-76
2022/02/14 01:59:37;;;;;;;3.25;1.23;;;;;;;;;;5051922;28;20068;-77
2022/02/14 02:02:04;;;;;;;3.58;1.30;;;;;;;;;;5050199;28;20060;-76
2022/02/14 02:04:30;;;;;;;3.95;1.50;;;;;;;;;;5051239;28;20104;-75
2022/02/14 02:06:56;;;;;;;5.20;1.45;;;;;;;;;;5051673;28;20509;-76
2022/02/14 02:09:26;;;;;;;4.32;1.52;;;;;;;;;;5051317;28;20021;-77
2022/02/14 02:14:36;;;;;;;4.50;1.77;;;;;;;;;;5051722;28;20092;-76
2022/02/14 02:17:03;;;;;;;5.30;1.48;;;;;;;;;;5051299;28;20036;-76
2022/02/14 02:19:29;;;;;;;3.42;1.10;;;;;;;;;;5051055;28;20023;-76
2022/02/14 02:21:55;;;;;;;4.32;1.40;;;;;;;;;;5049931;28;20021;-76
2022/02/14 02:24:22;;;;;;;4.60;1.27;;;;;;;;;;5050829;28;20025;-76
2022/02/14 02:27:05;;;;;;;6.38;1.85;;;;;;;;;;5051262;28;20024;-76
2022/02/14 02:29:31;;;;;;;3.85;1.58;;;;;;;;;;5049744;28;20029;-76
2022/02/14 02:31:57;;;;;;;4.80;1.50;;;;;;;;;;5051392;28;20434;-76
2022/02/14 02:34:24;;;;;;;8.07;1.80;;;;;;;;;;5049600;28;20067;-76
2022/02/14 02:36:51;;;;;;;3.70;1.48;;;;;;;;;;5049730;28;20075;-76
2022/02/14 02:39:17;;;;;;;3.83;1.75;;;;;;;;;;5049537;28;20025;-75
2022/02/14 02:41:44;;;;;;;3.85;1.50;;;;;;;;;;5051057;28;20024;-76
2022/02/14 02:44:10;;;;;;;6.50;1.58;;;;;;;;;;5051134;28;20017;-74
2022/02/14 02:46:37;;;;;;;3.47;1.25;;;;;;;;;;5051309;28;20025;-76
2022/02/14 02:49:11;;;;;;;2.80;1.38;;;;;;;;;;5049645;28;20032;-76
2022/02/14 02:51:38;;;;;;;4.68;1.40;;;;;;;;;;5049949;28;20139;-76
2022/02/14 02:54:04;;;;;;;6.28;1.52;;;;;;;;;;5050921;28;20056;-76
2022/02/14 02:56:30;;;;;;;8.95;1.92;;;;;;;;;;5049319;28;20037;-76
2022/02/14 02:58:56;;;;;;;3.05;1.10;;;;;;;;;;5052612;28;20025;-76
2022/02/14 03:01:22;;;;;;;6.28;1.55;;;;;;;;;;5053403;28;20021;-76
2022/02/14 03:03:49;;;;;;;2.65;1.10;;;;;;;;;;5055080;28;20420;-76
2022/02/14 03:06:15;;;;;;;3.60;2.08;;;;;;;;;;5053387;28;20046;-76
2022/02/14 03:08:41;;;;;;;4.47;1.45;;;;;;;;;;5053602;28;20032;-76
2022/02/14 03:11:07;;;;;;;4.75;1.30;;;;;;;;;;5055151;28;20366;-76
2022/02/14 03:13:33;;;;;;;2.53;1.10;;;;;;;;;;5053115;28;20114;-76
2022/02/14 03:15:59;;;;;;;3.88;1.42;;;;;;;;;;5053258;28;20025;-76
2022/02/14 03:18:25;;;;;;;3.45;1.50;;;;;;;;;;5054602;28;20024;-76
2022/02/14 03:20:51;;;;;;;5.53;1.50;;;;;;;;;;5054574;28;20048;-75
2022/02/14 03:23:17;;;;;;;4.28;1.58;;;;;;;;;;5052956;28;20396;-75
2022/02/14 03:25:43;;;;;;;2.70;1.00;;;;;;;;;;5053039;28;20033;-76
2022/02/14 03:28:09;;;;;;;3.28;1.17;;;;;;;;;;5054628;28;20099;-75
2022/02/14 03:30:35;;;;;;;5.80;1.83;;;;;;;;;;5054428;28;20476;-76
2022/02/14 03:33:01;;;;;;;3.08;1.33;;;;;;;;;;5054351;28;20036;-76
2022/02/14 03:35:27;;;;;;;3.45;1.40;;;;;;;;;;5054126;28;20025;-76
2022/02/14 03:37:53;;;;;;;4.00;1.50;;;;;;;;;;5054359;28;20068;-75
2022/02/14 03:40:19;;;;;;;2.72;1.40;;;;;;;;;;5052683;28;20107;-76
2022/02/14 03:42:45;;;;;;;2.25;1.10;;;;;;;;;;5054160;28;20056;-76
2022/02/14 03:45:11;;;;;;;5.22;1.48;;;;;;;;;;5053871;28;20492;-75
2022/02/14 03:47:37;;;;;;;4.13;1.20;;;;;;;;;;5053077;28;20078;-76
2022/02/14 03:50:03;;;;;;;3.58;1.45;;;;;;;;;;5054065;28;20104;-76
2022/02/14 03:52:29;;;;;;;4.13;1.23;;;;;;;;;;5052469;28;20043;-76
2022/02/14 03:54:55;;;;;;;2.78;1.30;;;;;;;;;;5052616;28;20025;-76
2022/02/14 03:57:21;;;;;;;3.75;1.48;;;;;;;;;;5053573;28;20033;-76
2022/02/14 03:59:47;;;;;;;4.80;0.95;;;;;;;;;;5053793;28;20541;-76
2022/02/14 04:02:13;;;;;;;3.97;1.15;;;;;;;;;;5053594;28;20067;-75
2022/02/14 04:04:39;;;;;;;2.95;1.20;;;;;;;;;;5054049;28;20527;-76
2022/02/14 04:07:05;;;;;;;4.22;1.20;;;;;;;;;;5053996;28;20079;-75
2022/02/14 04:09:31;;;;;;;3.25;1.17;;;;;;;;;;5053213;28;20082;-76
2022/02/14 04:11:57;;;;;;;2.47;1.42;;;;;;;;;;5051713;28;20064;-76
2022/02/14 04:14:23;;;;;;;3.42;1.00;;;;;;;;;;5053350;28;20047;-76
2022/02/14 04:16:49;;;;;;;5.97;1.05;;;;;;;;;;5052186;28;20033;-76
2022/02/14 04:19:15;;;;;;;5.93;1.75;;;;;;;;;;5053201;28;20029;-76
2022/02/14 04:21:41;;;;;;;2.92;1.52;;;;;;;;;;5053534;28;20024;-76
2022/02/14 04:24:07;;;;;;;3.80;1.60;;;;;;;;;;5052347;28;20033;-75
2022/02/14 04:26:33;;;;;;;5.88;1.63;;;;;;;;;;5053049;28;20025;-76
2022/02/14 04:29:00;;;;;;;3.08;1.10;;;;;;;;;;5053306;28;20078;-76
2022/02/14 04:31:26;;;;;;;3.83;1.00;;;;;;;;;;5051730;28;20017;-76
2022/02/14 04:33:52;;;;;;;2.95;1.15;;;;;;;;;;5053248;28;20028;-75
2022/02/14 04:36:18;;;;;;;2.53;1.10;;;;;;;;;;5052925;28;20531;-76
2022/02/14 04:38:44;;;;;;;2.70;1.05;;;;;;;;;;5051859;28;20064;-76
2022/02/14 04:41:10;;;;;;;2.67;1.30;;;;;;;;;;5053062;28;20021;-74
2022/02/14 04:43:36;;;;;;;5.38;1.10;;;;;;;;;;5053315;28;20032;-76
2022/02/14 04:46:02;;;;;;;3.55;1.23;;;;;;;;;;5051727;28;20017;-76
2022/02/14 04:48:28;;;;;;;4.93;1.65;;;;;;;;;;5052709;28;20036;-76
2022/02/14 04:50:54;;;;;;;6.13;1.33;;;;;;;;;;5051609;28;20020;-76
2022/02/14 04:53:20;;;;;;;4.45;1.00;;;;;;;;;;5051353;28;20036;-76
2022/02/14 04:55:46;;;;;;;4.93;1.60;;;;;;;;;;5051461;28;20044;-76
2022/02/14 04:58:13;;;;;;;7.00;1.20;;;;;;;;;;5052589;28;20041;-75
2022/02/14 05:00:40;;;;;;;2.25;1.05;;;;;;;;;;5051785;28;20025;-75
2022/02/14 05:03:06;;;;;;;2.20;1.10;;;;;;;;;;5051669;28;20032;-76
2022/02/14 05:05:32;;;;;;;2.50;1.17;;;;;;;;;;5052399;28;20025;-75
2022/02/14 05:07:58;;;;;;;2.58;1.00;;;;;;;;;;5052602;28;20078;-76
2022/02/14 05:10:24;;;;;;;2.10;0.98;;;;;;;;;;5052127;28;20028;-76
2022/02/14 05:12:50;;;;;;;4.97;0.90;;;;;;;;;;5052565;28;20032;-75
2022/02/14 05:15:17;;;;;;;6.60;1.00;;;;;;;;;;5052182;28;20419;-75
2022/02/14 05:17:43;;;;;;;1.98;0.90;;;;;;;;;;5051051;28;20095;-76
2022/02/14 05:20:09;;;;;;;3.95;1.13;;;;;;;;;;5052710;28;20024;-76
2022/02/14 05:22:35;;;;;;;3.20;1.20;;;;;;;;;;5051237;28;20547;-76
2022/02/14 05:25:01;;;;;;;1.70;0.88;;;;;;;;;;5052121;28;20033;-75
2022/02/14 05:27:27;;;;;;;3.58;0.95;;;;;;;;;;5052030;28;20370;-76
2022/02/14 05:29:54;;;;;;;2.67;1.02;;;;;;;;;;5052144;28;20091;-76
2022/02/14 05:32:20;;;;;;;3.30;0.80;;;;;;;;;;5050583;28;20035;-76
2022/02/14 05:34:46;;;;;;;2.17;0.90;;;;;;;;;;5050722;28;20021;-76
2022/02/14 05:37:12;;;;;;;2.40;1.00;;;;;;;;;;5051684;28;20520;-75
2022/02/14 05:39:38;;;;;;;2.28;1.02;;;;;;;;;;5052305;28;20161;-76
2022/02/14 05:42:04;;;;;;;4.63;0.88;;;;;;;;;;5051896;28;20443;-76
2022/02/14 05:44:30;;;;;;;3.38;0.90;;;;;;;;;;5050489;28;20025;-75
2022/02/14 05:46:56;;;;;;;3.08;0.93;;;;;;;;;;5050720;28;20087;-76
2022/02/14 05:49:22;;;;;;;0.85;0.60;;;;;;;;;;5050177;28;20020;-76
2022/02/14 05:51:48;;;;;;;3.10;0.95;;;;;;;;;;5051759;28;20032;-76
2022/02/14 05:54:14;;;;;;;3.05;1.23;;;;;;;;;;5051440;28;20469;-76
2022/02/14 05:56:40;;;;;;;1.45;0.70;;;;;;;;;;5050320;28;20028;-74
2022/02/14 05:59:06;;;;;;;3.25;1.00;;;;;;;;;;5051938;28;20096;-76
2022/02/14 06:01:32;;;;;;;2.30;0.57;;;;;;;;;;5062413;28;20029;-75
2022/02/14 06:03:58;;;;;;;3.35;0.70;;;;;;;;;;5069414;28;20016;-75
2022/02/14 06:06:24;;;;;;;3.38;0.70;;;;;;;;;;5070918;28;20396;-75
2022/02/14 06:08:50;;;;;;;1.23;0.70;;;;;;;;;;5070915;28;20027;-76
2022/02/14 06:11:17;;;;;;;1.80;0.70;;;;;;;;;;5070867;28;20024;-75
2022/02/14 06:13:42;;;;;;;2.03;0.52;;;;;;;;;;5071361;28;20104;-76
2022/02/14 06:16:08;;;;;;;1.08;0.50;;;;;;;;;;5069826;28;20115;-75
2022/02/14 06:18:35;;;;;;;3.35;0.77;;;;;;;;;;5070484;28;20047;-76
2022/02/14 06:21:01;;;;;;;2.78;0.50;;;;;;;;;;5070005;28;20024;-76
2022/02/14 06:23:27;;;;;;;1.08;0.50;;;;;;;;;;5070808;28;20060;-76
2022/02/14 06:25:53;;;;;;;1.25;0.70;;;;;;;;;;5071044;28;20028;-76
2022/02/14 06:28:19;;;;;;;0.93;0.35;;;;;;;;;;5068908;28;20032;-77
2022/02/14 06:30:46;;;;;;;1.15;0.65;;;;;;;;;;5070231;28;20017;-76
2022/02/14 06:33:13;;;;;;;1.98;0.55;;;;;;;;;;5070431;28;20078;-76
2022/02/14 06:35:39;;;;;;;0.75;0.32;;;;;;;;;;5071398;28;20093;-76
2022/02/14 06:38:06;;;;;;;0.70;0.35;;;;;;;;;;5071037;28;20051;-75
2022/02/14 06:40:32;;;;;;;1.83;0.40;;;;;;;;;;5069138;28;20052;-76
2022/02/14 06:42:58;;;;;;;1.45;0.50;;;;;;;;;;5070491;28;20028;-76
2022/02/14 06:45:24;;;;;;;1.50;0.50;;;;;;;;;;5070822;28;20013;-75
2022/02/14 06:47:50;;;;;;;3.72;0.60;;;;;;;;;;5070800;28;20103;-75
2022/02/14 06:50:17;;;;;;;3.25;0.47;;;;;;;;;;5069801;28;20029;-78
2022/02/14 06:52:44;;;;;;;1.40;0.57;;;;;;;;;;5069297;28;20028;-75
2022/02/14 06:55:10;;;;;;;1.35;0.57;;;;;;;;;;5070169;28;20082;-75
2022/02/14 06:57:37;;;;;;;1.58;0.60;;;;;;;;;;5070022;28;20116;-75
2022/02/14 07:00:08;;;;;;;1.73;0.57;;;;;;;;;;5070205;28;20017;-76
2022/02/14 07:02:34;;;;;;;0.70;0.38;;;;;;;;;;5068064;28;20488;-76
2022/02/14 07:05:00;;;;;;;0.75;0.40;;;;;;;;;;5070829;28;20048;-76
2022/02/14 07:07:26;;;;;;;1.10;0.45;;;;;;;;;;5069415;28;20532;-76
2022/02/14 07:09:52;;;;;;;1.75;0.40;;;;;;;;;;5069097;28;20020;-76
2022/02/14 07:12:18;;;;;;;1.90;0.60;;;;;;;;;;5070057;28;20028;-76
2022/02/14 07:14:44;;;;;;;1.55;0.63;;;;;;;;;;5070000;28;20446;-76
2022/02/14 07:17:11;;;;;;;0.57;0.32;;;;;;;;;;5069951;28;20075;-75
2022/02/14 07:19:39;;;;;;;1.50;0.50;;;;;;;;;;5071165;28;20116;-76
2022/02/14 07:22:05;;;;;;;0.93;0.50;;;;;;;;;;5070887;28;20518;-76
2022/02/14 07:24:31;;;;;;;1.08;0.40;;;;;;;;;;5069584;28;20063;-76
2022/02/14 07:26:57;;;;;;;1.17;0.40;;;;;;;;;;5069979;28;20028;-75
2022/02/14 07:29:23;;;;;;;1.20;0.45;;;;;;;;;;5069569;28;20024;-75
2022/02/14 07:31:49;;;;;;;2.08;0.68;;;;;;;;;;5070590;28;20035;-76
2022/02/14 07:34:15;;;;;;;2.30;0.52;;;;;;;;;;5070052;28;20594;-76
2022/02/14 07:36:41;;;;;;;2.78;0.63;;;;;;;;;;5070517;28;20036;-75
2022/02/14 07:39:08;;;;;;;0.57;0.30;;;;;;;;;;5070025;28;20117;-75
2022/02/14 07:41:36;;;;;;;3.22;0.50;;;;;;;;;;5067818;28;20032;-75
2022/02/14 07:44:02;;;;;;;1.25;0.50;;;;;;;;;;5068589;28;20032;-74
2022/02/14 07:46:28;;;;;;;1.08;0.30;;;;;;;;;;5070456;28;20029;-75
2022/02/14 07:48:54;;;;;;;1.25;0.40;;;;;;;;;;5072388;28;20034;-75
2022/02/14 07:51:21;;;;;;;1.27;0.30;;;;;;;;;;5072246;28;20033;-77
2022/02/14 07:53:47;;;;;;;2.97;0.40;;;;;;;;;;5072095;28;20424;-75
2022/02/14 07:56:14;;;;;;;0.98;0.30;;;;;;;;;;5072215;28;20109;-76
2022/02/14 07:58:40;;;;;;;0.82;0.40;;;;;;;;;;5070817;28;20035;-74
2022/02/14 08:01:07;;;;;;;2.05;0.57;;;;;;;;;;5070982;28;20021;-75
2022/02/14 08:03:33;;;;;;;1.67;0.30;;;;;;;;;;5072776;28;20021;-75
2022/02/14 08:05:59;;;;;;;2.05;0.40;;;;;;;;;;5070478;28;20027;-75
2022/02/14 08:08:25;;;;;;;0.63;0.30;;;;;;;;;;5069942;28;20033;-75
2022/02/14 08:10:52;;;;;;;1.00;0.50;;;;;;;;;;5071726;28;20026;-76
2022/02/14 08:13:18;;;;;;;1.35;0.80;;;;;;;;;;5070103;28;20511;-74
2022/02/14 08:15:44;;;;;;;1.95;0.50;;;;;;;;;;5067846;28;20016;-75
2022/02/14 08:18:10;;;;;;;2.80;0.50;;;;;;;;;;5070039;28;20090;-76
2022/02/14 08:20:37;;;;;;;1.45;0.50;;;;;;;;;;5070831;28;20024;-78
2022/02/14 08:23:03;;;;;;;1.67;0.40;;;;;;;;;;5071551;28;20025;-75
2022/02/14 08:25:30;;;;;;;3.58;0.57;;;;;;;;;;5070181;28;20033;-76
2022/02/14 08:27:56;;;;;;;3.35;0.60;;;;;;;;;;5071398;28;20092;-77
2022/02/14 08:30:22;;;;;;;4.88;0.50;;;;;;;;;;5071070;28;20062;-77
2022/02/14 08:32:49;;;;;;;1.25;0.60;;;;;;;;;;5069998;28;20021;-78
2022/02/14 08:35:17;;;;;;;4.22;0.50;;;;;;;;;;5071247;28;20020;-76
2022/02/14 08:37:43;;;;;;;3.90;0.60;;;;;;;;;;5071579;28;20051;-77
2022/02/14 08:40:09;;;;;;;3.47;0.50;;;;;;;;;;5071446;28;20477;-80
2022/02/14 08:42:35;;;;;;;5.25;0.75;;;;;;;;;;5071368;28;20492;-76
2022/02/14 08:45:02;;;;;;;4.35;0.70;;;;;;;;;;5070599;28;21407;-77
2022/02/14 08:47:28;;;;;;;6.95;0.70;;;;;;;;;;5068032;28;20127;-75
2022/02/14 08:49:54;;;;;;;13.15;1.33;;;;;;;;;;5071535;28;20025;-76
2022/02/14 08:52:20;;;;;;;3.35;1.05;;;;;;;;;;5070721;28;20033;-81
2022/02/14 08:54:46;;;;;;;8.38;0.80;;;;;;;;;;5071987;28;20496;-78
2022/02/14 08:57:13;;;;;;;5.72;0.50;;;;;;;;;;5070923;28;20032;-77
2022/02/14 08:59:39;;;;;;;2.30;0.47;;;;;;;;;;5071157;28;20445;-77
2022/02/14 09:02:06;;;;;;;1.90;0.60;;;;;;;;;;5070761;28;20060;-74
2022/02/14 09:04:32;;;;;;;3.05;0.63;;;;;;;;;;5072263;28;20123;-76
2022/02/14 09:06:58;;;;;;;2.92;0.50;;;;;;;;;;5081886;28;20051;-75
2022/02/14 09:09:24;;;;;;;2.10;0.40;;;;;;;;;;5074422;28;20031;-75
2022/02/14 09:11:50;;;;;;;1.50;0.45;;;;;;;;;;5078261;28;20020;-74
2022/02/14 09:14:16;;;;;;;2.25;0.50;;;;;;;;;;5081830;28;20028;-75
2022/02/14 09:16:42;;;;;;;3.20;0.50;;;;;;;;;;5072099;28;20036;-76
2022/02/14 09:19:10;;;;;;;2.85;0.40;;;;;;;;;;5080317;28;20048;-77
2022/02/14 09:21:36;;;;;;;2.63;0.40;;;;;;;;;;5077720;28;20455;-76
2022/02/14 09:24:03;;;;;;;2.40;0.70;;;;;;;;;;5076709;28;20092;-77
2022/02/14 09:26:29;;;;;;;4.15;0.45;;;;;;;;;;5080033;28;20040;-77
2022/02/14 09:28:55;;;;;;;4.65;0.80;;;;;;;;;;5082135;28;20028;-77
2022/02/14 09:31:21;;;;;;;1.75;0.50;;;;;;;;;;5086487;28;20031;-78
2022/02/14 09:33:47;;;;;;;2.90;0.77;;;;;;;;;;5075214;28;20396;-76
2022/02/14 09:36:14;;;;;;;2.97;0.55;;;;;;;;;;5078962;28;20028;-77
2022/02/14 09:38:40;;;;;;;3.70;0.50;;;;;;;;;;5078756;28;20029;-74
2022/02/14 09:41:06;;;;;;;3.65;0.50;;;;;;;;;;5069972;28;20016;-78
2022/02/14 09:43:34;;;;;;;5.68;0.93;;;;;;;;;;5054456;28;20094;-77
2022/02/14 09:46:01;;;;;;;2.22;0.80;;;;;;;;;;5063552;28;20016;-76
2022/02/14 09:48:31;;;;;;;2.30;0.65;;;;;;;;;;5074683;28;20032;-77
2022/02/14 09:50:57;;;;;;;1.65;0.40;;;;;;;;;;5085355;28;20125;-78
2022/02/14 09:53:23;;;;;;;1.85;0.52;;;;;;;;;;5074221;28;20046;-78
2022/02/14 09:55:49;;;;;;;4.10;0.80;;;;;;;;;;5085382;28;20444;-75
2022/02/14 09:58:15;;;;;;;5.15;0.77;;;;;;;;;;5069211;28;20041;-78
2022/02/14 10:00:41;;;;;;;2.70;0.65;;;;;;;;;;5082414;28;20117;-79
2022/02/14 10:03:13;;;;;;;3.97;0.93;;;;;;;;;;5074420;28;20024;-76
2022/02/14 10:05:49;;;;;;;4.78;1.02;;;;;;;;;;5070508;28;20020;-75
2022/02/14 10:08:19;;;;;;;3.10;0.68;;;;;;;;;;5079156;28;20020;-76
2022/02/14 10:10:45;;;;;;;4.72;0.80;;;;;;;;;;5077004;28;20044;-76
2022/02/14 10:13:11;;;;;;;3.63;0.73;;;;;;;;;;5086428;28;20020;-75
2022/02/14 10:15:49;;;;;;;4.50;1.08;;;;;;;;;;5071763;28;20023;-76
2022/02/14 10:18:25;;;;;;;6.28;0.60;;;;;;;;;;5068038;28;20496;-75
2022/02/14 10:20:51;;;;;;;2.58;0.65;;;;;;;;;;5069162;28;20107;-76
2022/02/14 10:23:17;;;;;;;5.22;0.90;;;;;;;;;;5079200;28;20100;-76
2022/02/14 10:25:44;;;;;;;8.57;1.10;;;;;;;;;;5077394;28;20420;-75
2022/02/14 10:28:18;;;;;;;5.18;0.50;;;;;;;;;;5077457;28;20044;-75
2022/02/14 10:30:59;;;;;;;3.35;0.60;;;;;;;;;;5082647;28;20069;-76
2022/02/14 10:33:44;;;;;;;2.00;0.50;;;;;;;;;;5073519;28;20020;-76
2022/02/14 10:36:10;;;;;;;4.35;0.75;;;;;;;;;;5090111;28;20031;-75
2022/02/14 10:38:39;;;;;;;2.80;0.60;;;;;;;;;;5078602;28;20036;-76
2022/02/14 10:41:14;;;;;;;6.70;0.63;;;;;;;;;;5070680;28;20017;-75
2022/02/14 10:43:41;;;;;;;5.88;0.68;;;;;;;;;;5070010;28;20056;-75
2022/02/14 10:46:07;;;;;;;4.07;0.68;;;;;;;;;;5081118;28;20110;-76
2022/02/14 10:48:39;;;;;;;2.83;0.90;;;;;;;;;;5081910;28;20035;-76
2022/02/14 10:51:05;;;;;;;5.65;0.68;;;;;;;;;;5074466;28;20023;-77
2022/02/14 10:53:43;;;;;;;3.45;0.52;;;;;;;;;;5081322;28;20028;-78
2022/02/14 10:56:10;;;;;;;7.32;0.88;;;;;;;;;;5080887;28;20070;-77
2022/02/14 10:58:36;;;;;;;5.93;1.00;;;;;;;;;;5070496;28;20113;-78
2022/02/14 11:01:02;;;;;;;6.57;0.75;;;;;;;;;;5084844;28;20492;-78
2022/02/14 11:03:28;;;;;;;3.80;1.10;;;;;;;;;;5071351;28;20032;-78
2022/02/14 11:05:54;;;;;;;11.73;1.63;;;;;;;;;;5082707;28;20460;-77
2022/02/14 11:08:21;;;;;;;6.32;1.20;;;;;;;;;;5078736;28;20052;-78
2022/02/14 11:10:49;;;;;;;9.75;1.40;;;;;;;;;;5076433;28;20028;-75
2022/02/14 11:13:16;;;;;;;4.43;1.10;;;;;;;;;;5071127;28;20047;-75
2022/02/14 11:15:43;;;;;;;4.55;0.98;;;;;;;;;;5072512;28;20028;-75
2022/02/14 11:18:13;;;;;;;6.00;0.93;;;;;;;;;;5078758;28;20491;-75
2022/02/14 11:20:39;;;;;;;6.68;1.10;;;;;;;;;;5082168;28;20491;-76
2022/02/14 11:23:06;;;;;;;5.10;1.25;;;;;;;;;;5078075;28;20361;-76
2022/02/14 11:25:32;;;;;;;7.68;1.20;;;;;;;;;;5082719;28;20089;-76
2022/02/14 11:28:09;;;;;;;4.68;0.80;;;;;;;;;;5085773;28;20473;-75
2022/02/14 11:30:35;;;;;;;5.90;1.10;;;;;;;;;;5086406;28;20028;-75
2022/02/14 11:33:09;;;;;;;6.53;1.30;;;;;;;;;;5076760;28;20395;-76
2022/02/14 11:35:35;;;;;;;4.97;1.58;;;;;;;;;;5067270;28;20111;-76
2022/02/14 11:38:01;;;;;;;13.18;6.57;;;;;;;;;;5084982;28;20025;-76
2022/02/14 11:40:39;;;;;;;12.95;6.88;;;;;;;;;;5084609;28;20078;-76
2022/02/14 11:43:19;;;;;;;10.15;5.78;;;;;;;;;;5077704;28;20480;-76
2022/02/14 11:46:05;;;;;;;12.85;6.70;;;;;;;;;;5061072;28;20028;-75
2022/02/14 11:48:31;;;;;;;11.48;6.10;;;;;;;;;;5071810;28;20028;-76
2022/02/14 11:51:07;;;;;;;13.07;6.13;;;;;;;;;;5088820;28;20110;-76
2022/02/14 11:53:41;;;;;;;11.65;5.95;;;;;;;;;;5060272;28;20020;-76
2022/02/14 11:56:23;;;;;;;10.65;6.05;;;;;;;;;;5084219;28;20462;-76
2022/02/14 11:58:58;;;;;;;16.98;5.38;;;;;;;;;;5072108;28;20028;-75
2022/02/14 12:01:24;;;;;;;13.50;4.38;;;;;;;;;;5089375;28;20031;-77
2022/02/14 12:03:51;;;;;;;9.90;4.47;;;;;;;;;;5077736;28;20020;-77
2022/02/14 12:06:17;;;;;;;15.45;4.40;;;;;;;;;;5076842;28;20028;-76
2022/02/14 12:09:00;;;;;;;8.30;4.07;;;;;;;;;;5078617;28;20056;-78
2022/02/14 12:11:46;;;;;;;9.10;4.18;;;;;;;;;;5088029;28;20027;-75
2022/02/14 12:14:20;;;;;;;10.43;4.25;;;;;;;;;;5074839;28;20048;-75
2022/02/14 12:22:49;;;;;;;8.60;3.95;;;;;;;;;;5083849;28;20097;-75
2022/02/14 12:25:15;;;;;;;9.80;3.55;;;;;;;;;;5073869;28;20033;-76
2022/02/14 12:27:41;;;;;;;5.38;2.90;;;;;;;;;;5088218;28;20060;-75
2022/02/14 12:30:20;;;;;;;6.90;3.35;;;;;;;;;;5081352;28;20023;-76
2022/02/14 12:32:50;;;;;;;7.15;2.60;;;;;;;;;;5078433;28;20024;-75
2022/02/14 12:35:32;;;;;;;8.25;2.78;;;;;;;;;;5076546;28;20032;-75
2022/02/14 12:37:58;;;;;;;6.85;2.60;;;;;;;;;;5085713;28;20036;-76
2022/02/14 12:40:24;;;;;;;7.65;2.55;;;;;;;;;;5081552;28;20016;-76
2022/02/14 12:42:51;;;;;;;4.13;1.98;;;;;;;;;;5078455;28;20020;-76
2022/02/14 12:45:18;;;;;;;6.38;3.15;;;;;;;;;;5076844;28;20029;-76
2022/02/14 12:47:44;;;;;;;6.43;2.03;;;;;;;;;;5087594;28;20016;-76
2022/02/14 12:50:17;;;;;;;7.50;2.13;;;;;;;;;;5081162;28;20012;-76
2022/02/14 12:52:44;;;;;;;10.43;2.17;;;;;;;;;;5078807;28;20036;-76
2022/02/14 12:55:10;;;;;;;6.15;2.03;;;;;;;;;;5080506;28;20020;-77
2022/02/14 12:57:56;;;;;;;4.60;1.80;;;;;;;;;;5088987;28;20154;-76
2022/02/14 13:00:24;;;;;;;3.40;1.40;;;;;;;;;;5081782;28;20024;-76
2022/02/14 13:02:51;;;;;;;4.57;1.65;;;;;;;;;;5086385;28;20023;-76
2022/02/14 13:05:17;;;;;;;3.92;1.63;;;;;;;;;;5074733;28;20499;-76
2022/02/14 13:07:43;;;;;;;7.00;1.92;;;;;;;;;;5087314;28;20017;-76
2022/02/14 13:10:09;;;;;;;4.43;1.75;;;;;;;;;;5080849;28;20034;-76
2022/02/14 13:12:35;;;;;;;3.65;1.30;;;;;;;;;;5079647;28;20020;-76
2022/02/14 13:15:08;;;;;;;3.47;1.30;;;;;;;;;;5087324;28;20036;-76
2022/02/14 13:17:34;;;;;;;6.05;1.40;;;;;;;;;;5074184;28;20042;-76
2022/02/14 13:20:05;;;;;;;5.50;1.70;;;;;;;;;;5083362;28;20020;-76
2022/02/14 13:22:34;;;;;;;5.40;1.17;;;;;;;;;;5083094;28;20028;-76
2022/02/14 13:25:01;;;;;;;4.85;1.50;;;;;;;;;;5074897;28;20036;-76
2022/02/14 13:27:36;;;;;;;4.35;1.30;;;;;;;;;;5078206;28;20039;-76
2022/02/14 13:30:07;;;;;;;7.68;1.73;;;;;;;;;;5082840;28;20481;-76
2022/02/14 13:32:34;;;;;;;4.18;1.40;;;;;;;;;;5083136;28;20028;-76
2022/02/14 13:35:08;;;;;;;4.93;1.92;;;;;;;;;;5076001;28;20369;-76
2022/02/14 13:37:40;;;;;;;4.05;1.48;;;;;;;;;;5068564;28;20173;-76
2022/02/14 13:40:24;;;;;;;5.97;1.80;;;;;;;;;;5083678;28;20020;-76
2022/02/14 13:42:52;;;;;;;5.35;1.17;;;;;;;;;;5083536;28;20066;-76
2022/02/14 13:45:19;;;;;;;4.15;1.10;;;;;;;;;;5072961;28;20028;-76
2022/02/14 13:47:46;;;;;;;3.72;1.30;;;;;;;;;;5085848;28;20024;-76
2022/02/14 13:50:26;;;;;;;3.45;1.45;;;;;;;;;;5070316;28;20029;-76
2022/02/14 13:52:53;;;;;;;5.07;1.58;;;;;;;;;;5072866;28;20032;-76
2022/02/14 13:55:24;;;;;;;3.88;1.17;;;;;;;;;;5071168;28;20060;-76
2022/02/14 13:57:50;;;;;;;4.55;1.25;;;;;;;;;;5088935;28;20035;-76
2022/02/14 14:00:36;;;;;;;5.68;1.30;;;;;;;;;;5087101;28;20392;-76
2022/02/14 14:03:02;;;;;;;;;;;;;;;;;;5074516;28;20392;-76
2022/02/14 14:05:38;;;;;;;5.25;1.50;;;;;;;;;;5087289;28;19904;-76
2022/02/14 14:08:04;;;;;;;3.70;1.38;;;;;;;;;;5078800;28;20027;-75
2022/02/14 14:10:37;;;;;;;5.03;0.80;;;;;;;;;;5079196;28;20073;-76
2022/02/14 14:13:03;;;;;;;4.32;1.40;;;;;;;;;;5086972;28;20028;-75
2022/02/14 14:15:29;;;;;;;3.58;0.93;;;;;;;;;;5073754;28;20055;-75
2022/02/14 14:17:55;;;;;;;2.38;0.75;;;;;;;;;;5082731;28;20079;-75
2022/02/14 14:20:24;;;;;;;4.22;1.25;;;;;;;;;;5079316;28;20451;-75
2022/02/14 14:22:51;;;;;;;2.60;0.85;;;;;;;;;;5076560;28;20028;-74
2022/02/14 14:25:17;;;;;;;7.18;1.52;;;;;;;;;;5086852;28;20038;-75
2022/02/14 14:27:47;;;;;;;3.97;1.33;;;19.50;54.60;;;;;;5075388;28;20078;-74
2022/02/14 14:30:13;;;;;;;5.97;1.27;;;19.60;55.10;;;;;;5081335;28;20434;-75
2022/02/14 14:32:39;;;;;;;4.43;1.15;;;19.60;55.30;;;;;;5083595;28;20020;-75
2022/02/14 14:35:06;;;;;;;3.05;1.38;;;19.50;56.00;;;;;;5072665;28;20105;-74
2022/02/14 14:37:31;;;;;;;5.45;1.10;;;19.40;56.20;;;;;;5082893;28;20035;-75
2022/02/14 14:39:58;;;;;;;3.10;1.10;;;19.30;55.70;;;;;;5076001;28;20024;-75
2022/02/14 14:42:24;;;;;;;5.40;1.27;;;19.20;55.40;;;;;;5070079;28;20095;-75
2022/02/14 14:44:50;;;;;;;3.85;1.30;;;19.20;55.90;;;;;;5083501;28;20066;-75
2022/02/14 14:47:16;;;;;;;3.17;1.02;;;19.20;55.90;;;;;;5073513;28;20025;-73